Aviation Digital Data Service (ADDS)

Output produced by METARs form (1824 UTC 22 November 2017)
found at http://www.aviationweather.gov/adds/metars/
 
VGEG 221700Z 01004KT 3500 HZ SCT300 23/19 Q1010 NOSIG
TAF VGEG 221700Z 2218/2324 00000KT 4000HZ NSC 
     BECMG 2300/2302 00000KT 2500BR SCT012 
     BECMG 2303/2305 04008KT 3500HZ NSC 
     BECMG 2308/2310 34012KT 5000HZ NSC 
     BECMG 2320/2322 00000KT 4000HZ NSC